KTYS

McGhee Tyson Airport

ICAO Code KTYS
IATA Code TYS
Name McGhee Tyson Airport
Location Knoxville, Tennessee, US
Elevation 981 Feet / 299 Meters
Latitude 35.81100082
Longitude -83.99400330
METAR KTYS 080753Z 23007KT 10SM BKN075 OVC095 11/05 A3004 RMK AO2 SLP167 T01110050
Extra information Display Charts and CFS
Display NOTAMS
Runway Length Width Surface Elevation
05L 9005 ft 150 ft CON 923 ft
05R 9000 ft 150 ft ASP 938 ft
23R 9005 ft 150 ft CON 976 ft
23L 9000 ft 150 ft ASP 962 ft